sensor_id;sensor_type;location;lat;lon;timestamp;P1;durP1;ratioP1;P2;durP2;ratioP2
37237;SDS011;23129;49.662;8.448;2022-10-16T00:01:43;1.63;;;0.63;;
37237;SDS011;23129;49.662;8.448;2022-10-16T00:04:12;0.43;;;0.43;;
37237;SDS011;23129;49.662;8.448;2022-10-16T00:06:41;0.30;;;0.30;;
37237;SDS011;23129;49.662;8.448;2022-10-16T00:09:09;0.90;;;0.40;;
37237;SDS011;23129;49.662;8.448;2022-10-16T00:11:39;1.65;;;0.70;;
37237;SDS011;23129;49.662;8.448;2022-10-16T00:14:10;0.50;;;0.50;;
37237;SDS011;23129;49.662;8.448;2022-10-16T00:16:41;0.25;;;0.25;;
37237;SDS011;23129;49.662;8.448;2022-10-16T00:19:10;4.03;;;0.40;;
37237;SDS011;23129;49.662;8.448;2022-10-16T00:21:39;1.75;;;0.75;;
37237;SDS011;23129;49.662;8.448;2022-10-16T00:24:08;0.20;;;0.20;;
37237;SDS011;23129;49.662;8.448;2022-10-16T00:26:39;2.03;;;0.50;;
37237;SDS011;23129;49.662;8.448;2022-10-16T00:29:08;1.10;;;0.50;;
37237;SDS011;23129;49.662;8.448;2022-10-16T00:31:36;3.47;;;0.28;;
37237;SDS011;23129;49.662;8.448;2022-10-16T00:34:05;0.30;;;0.30;;
37237;SDS011;23129;49.662;8.448;2022-10-16T00:36:33;2.45;;;0.60;;
37237;SDS011;23129;49.662;8.448;2022-10-16T00:39:02;0.55;;;0.30;;
37237;SDS011;23129;49.662;8.448;2022-10-16T00:41:31;0.82;;;0.55;;
37237;SDS011;23129;49.662;8.448;2022-10-16T00:44:02;0.60;;;0.60;;
37237;SDS011;23129;49.662;8.448;2022-10-16T00:46:51;4.90;;;0.40;;
37237;SDS011;23129;49.662;8.448;2022-10-16T00:49:20;1.42;;;0.55;;
37237;SDS011;23129;49.662;8.448;2022-10-16T00:51:49;0.55;;;0.55;;
37237;SDS011;23129;49.662;8.448;2022-10-16T00:54:21;1.73;;;0.73;;
37237;SDS011;23129;49.662;8.448;2022-10-16T00:56:53;1.00;;;0.85;;
37237;SDS011;23129;49.662;8.448;2022-10-16T00:59:25;1.23;;;1.13;;
37237;SDS011;23129;49.662;8.448;2022-10-16T01:01:57;1.98;;;1.50;;
37237;SDS011;23129;49.662;8.448;2022-10-16T01:04:29;7.60;;;1.90;;
37237;SDS011;23129;49.662;8.448;2022-10-16T01:07:03;2.05;;;1.85;;
37237;SDS011;23129;49.662;8.448;2022-10-16T01:09:41;4.78;;;2.15;;
37237;SDS011;23129;49.662;8.448;2022-10-16T01:12:23;9.02;;;2.20;;
37237;SDS011;23129;49.662;8.448;2022-10-16T01:15:11;4.50;;;1.67;;
37237;SDS011;23129;49.662;8.448;2022-10-16T01:17:51;2.65;;;2.08;;
37237;SDS011;23129;49.662;8.448;2022-10-16T01:20:26;4.13;;;2.47;;
37237;SDS011;23129;49.662;8.448;2022-10-16T01:23:05;4.88;;;2.25;;
37237;SDS011;23129;49.662;8.448;2022-10-16T01:25:49;3.30;;;2.30;;
37237;SDS011;23129;49.662;8.448;2022-10-16T01:28:38;4.10;;;2.58;;
37237;SDS011;23129;49.662;8.448;2022-10-16T01:31:13;8.70;;;3.53;;
37237;SDS011;23129;49.662;8.448;2022-10-16T01:33:46;7.68;;;4.20;;
37237;SDS011;23129;49.662;8.448;2022-10-16T01:36:24;13.50;;;5.65;;
37237;SDS011;23129;49.662;8.448;2022-10-16T01:38:59;6.50;;;5.03;;
37237;SDS011;23129;49.662;8.448;2022-10-16T01:41:31;6.00;;;4.10;;
37237;SDS011;23129;49.662;8.448;2022-10-16T01:44:06;10.35;;;4.68;;
37237;SDS011;23129;49.662;8.448;2022-10-16T01:46:39;15.80;;;4.57;;
37237;SDS011;23129;49.662;8.448;2022-10-16T01:49:09;9.65;;;3.97;;
37237;SDS011;23129;49.662;8.448;2022-10-16T01:51:39;7.03;;;3.88;;
37237;SDS011;23129;49.662;8.448;2022-10-16T01:54:10;5.40;;;4.32;;
37237;SDS011;23129;49.662;8.448;2022-10-16T01:56:42;11.18;;;3.90;;
37237;SDS011;23129;49.662;8.448;2022-10-16T01:59:15;7.80;;;4.00;;
37237;SDS011;23129;49.662;8.448;2022-10-16T02:01:48;11.30;;;3.80;;
37237;SDS011;23129;49.662;8.448;2022-10-16T02:04:23;10.30;;;3.75;;
37237;SDS011;23129;49.662;8.448;2022-10-16T02:06:55;7.95;;;4.28;;
37237;SDS011;23129;49.662;8.448;2022-10-16T02:09:24;7.60;;;4.00;;
37237;SDS011;23129;49.662;8.448;2022-10-16T02:11:53;13.07;;;4.13;;
37237;SDS011;23129;49.662;8.448;2022-10-16T02:14:25;15.10;;;4.57;;
37237;SDS011;23129;49.662;8.448;2022-10-16T02:16:54;13.05;;;4.25;;
37237;SDS011;23129;49.662;8.448;2022-10-16T02:19:22;5.32;;;3.55;;
37237;SDS011;23129;49.662;8.448;2022-10-16T02:21:53;6.63;;;3.53;;
37237;SDS011;23129;49.662;8.448;2022-10-16T02:24:24;9.70;;;4.70;;
37237;SDS011;23129;49.662;8.448;2022-10-16T02:27:01;12.00;;;3.58;;
37237;SDS011;23129;49.662;8.448;2022-10-16T02:32:10;4.40;;;3.65;;
37237;SDS011;23129;49.662;8.448;2022-10-16T02:34:43;10.95;;;4.75;;
37237;SDS011;23129;49.662;8.448;2022-10-16T02:37:12;14.48;;;4.68;;
37237;SDS011;23129;49.662;8.448;2022-10-16T02:39:42;14.68;;;4.72;;
37237;SDS011;23129;49.662;8.448;2022-10-16T02:42:11;10.95;;;4.18;;
37237;SDS011;23129;49.662;8.448;2022-10-16T02:44:41;7.55;;;4.40;;
37237;SDS011;23129;49.662;8.448;2022-10-16T02:47:09;9.05;;;4.70;;
37237;SDS011;23129;49.662;8.448;2022-10-16T02:49:38;6.13;;;3.63;;
37237;SDS011;23129;49.662;8.448;2022-10-16T02:52:07;5.97;;;3.00;;
37237;SDS011;23129;49.662;8.448;2022-10-16T02:54:35;11.32;;;3.83;;
37237;SDS011;23129;49.662;8.448;2022-10-16T02:57:04;3.85;;;3.45;;
37237;SDS011;23129;49.662;8.448;2022-10-16T02:59:32;4.22;;;3.13;;
37237;SDS011;23129;49.662;8.448;2022-10-16T03:02:02;6.45;;;3.13;;
37237;SDS011;23129;49.662;8.448;2022-10-16T03:04:30;4.78;;;3.25;;
37237;SDS011;23129;49.662;8.448;2022-10-16T03:06:58;8.80;;;3.25;;
37237;SDS011;23129;49.662;8.448;2022-10-16T03:09:27;8.73;;;3.47;;
37237;SDS011;23129;49.662;8.448;2022-10-16T03:11:55;6.10;;;2.90;;
37237;SDS011;23129;49.662;8.448;2022-10-16T03:14:24;7.53;;;3.80;;
37237;SDS011;23129;49.662;8.448;2022-10-16T03:16:53;3.35;;;3.08;;
37237;SDS011;23129;49.662;8.448;2022-10-16T03:19:23;4.07;;;3.67;;
37237;SDS011;23129;49.662;8.448;2022-10-16T03:21:51;8.77;;;4.25;;
37237;SDS011;23129;49.662;8.448;2022-10-16T03:24:19;9.27;;;4.80;;
37237;SDS011;23129;49.662;8.448;2022-10-16T03:26:48;6.88;;;4.15;;
37237;SDS011;23129;49.662;8.448;2022-10-16T03:29:16;8.20;;;4.45;;
37237;SDS011;23129;49.662;8.448;2022-10-16T03:31:45;12.32;;;4.43;;
37237;SDS011;23129;49.662;8.448;2022-10-16T03:34:14;5.95;;;3.80;;
37237;SDS011;23129;49.662;8.448;2022-10-16T03:36:44;13.23;;;4.25;;
37237;SDS011;23129;49.662;8.448;2022-10-16T03:39:12;9.80;;;4.07;;
37237;SDS011;23129;49.662;8.448;2022-10-16T03:41:41;15.10;;;4.80;;
37237;SDS011;23129;49.662;8.448;2022-10-16T03:44:09;6.97;;;3.80;;
37237;SDS011;23129;49.662;8.448;2022-10-16T03:46:37;10.05;;;4.07;;
37237;SDS011;23129;49.662;8.448;2022-10-16T03:49:06;12.18;;;3.97;;
37237;SDS011;23129;49.662;8.448;2022-10-16T03:51:35;9.90;;;4.22;;
37237;SDS011;23129;49.662;8.448;2022-10-16T03:54:05;7.50;;;3.90;;
37237;SDS011;23129;49.662;8.448;2022-10-16T03:56:33;5.53;;;4.00;;
37237;SDS011;23129;49.662;8.448;2022-10-16T03:59:02;4.43;;;3.45;;
37237;SDS011;23129;49.662;8.448;2022-10-16T04:01:30;11.35;;;4.45;;
37237;SDS011;23129;49.662;8.448;2022-10-16T04:03:58;7.22;;;4.15;;
37237;SDS011;23129;49.662;8.448;2022-10-16T04:06:27;4.55;;;3.53;;
37237;SDS011;23129;49.662;8.448;2022-10-16T04:08:55;7.45;;;3.95;;
37237;SDS011;23129;49.662;8.448;2022-10-16T04:11:24;14.18;;;4.03;;
37237;SDS011;23129;49.662;8.448;2022-10-16T04:13:53;10.82;;;4.75;;
37237;SDS011;23129;49.662;8.448;2022-10-16T04:16:22;4.93;;;3.50;;
37237;SDS011;23129;49.662;8.448;2022-10-16T04:18:50;8.65;;;3.17;;
37237;SDS011;23129;49.662;8.448;2022-10-16T04:21:19;9.25;;;3.88;;
37237;SDS011;23129;49.662;8.448;2022-10-16T04:23:48;6.80;;;3.65;;
37237;SDS011;23129;49.662;8.448;2022-10-16T04:26:17;10.65;;;3.63;;
37237;SDS011;23129;49.662;8.448;2022-10-16T04:28:46;5.78;;;3.90;;
37237;SDS011;23129;49.662;8.448;2022-10-16T04:31:15;8.27;;;3.60;;
37237;SDS011;23129;49.662;8.448;2022-10-16T04:33:43;4.47;;;3.45;;
37237;SDS011;23129;49.662;8.448;2022-10-16T04:36:12;9.00;;;3.75;;
37237;SDS011;23129;49.662;8.448;2022-10-16T04:38:40;11.80;;;3.55;;
37237;SDS011;23129;49.662;8.448;2022-10-16T04:41:09;9.40;;;3.70;;
37237;SDS011;23129;49.662;8.448;2022-10-16T04:43:37;7.63;;;4.18;;
37237;SDS011;23129;49.662;8.448;2022-10-16T04:46:07;12.15;;;3.70;;
37237;SDS011;23129;49.662;8.448;2022-10-16T04:48:36;4.88;;;3.58;;
37237;SDS011;23129;49.662;8.448;2022-10-16T04:51:04;12.18;;;3.25;;
37237;SDS011;23129;49.662;8.448;2022-10-16T04:53:33;8.57;;;3.88;;
37237;SDS011;23129;49.662;8.448;2022-10-16T04:56:01;6.40;;;4.10;;
37237;SDS011;23129;49.662;8.448;2022-10-16T04:58:30;9.20;;;4.07;;
37237;SDS011;23129;49.662;8.448;2022-10-16T05:00:59;9.57;;;4.28;;
37237;SDS011;23129;49.662;8.448;2022-10-16T05:03:29;13.43;;;4.38;;
37237;SDS011;23129;49.662;8.448;2022-10-16T05:05:57;5.85;;;3.95;;
37237;SDS011;23129;49.662;8.448;2022-10-16T05:08:26;7.88;;;4.47;;
37237;SDS011;23129;49.662;8.448;2022-10-16T05:10:54;12.43;;;4.80;;
37237;SDS011;23129;49.662;8.448;2022-10-16T05:13:22;12.52;;;4.72;;
37237;SDS011;23129;49.662;8.448;2022-10-16T05:15:51;8.70;;;4.55;;
37237;SDS011;23129;49.662;8.448;2022-10-16T05:18:19;6.43;;;4.10;;
37237;SDS011;23129;49.662;8.448;2022-10-16T05:20:49;6.80;;;3.70;;
37237;SDS011;23129;49.662;8.448;2022-10-16T05:23:17;11.82;;;4.63;;
37237;SDS011;23129;49.662;8.448;2022-10-16T05:25:51;11.40;;;4.40;;
37237;SDS011;23129;49.662;8.448;2022-10-16T05:28:21;15.80;;;4.30;;
37237;SDS011;23129;49.662;8.448;2022-10-16T05:30:50;5.68;;;4.63;;
37237;SDS011;23129;49.662;8.448;2022-10-16T05:33:21;8.80;;;4.50;;
37237;SDS011;23129;49.662;8.448;2022-10-16T05:35:52;14.32;;;4.65;;
37237;SDS011;23129;49.662;8.448;2022-10-16T05:38:20;13.65;;;4.82;;
37237;SDS011;23129;49.662;8.448;2022-10-16T05:40:52;10.73;;;3.97;;
37237;SDS011;23129;49.662;8.448;2022-10-16T05:43:21;12.85;;;3.97;;
37237;SDS011;23129;49.662;8.448;2022-10-16T05:45:55;12.48;;;3.83;;
37237;SDS011;23129;49.662;8.448;2022-10-16T05:48:25;8.32;;;3.33;;
37237;SDS011;23129;49.662;8.448;2022-10-16T05:50:59;5.63;;;3.75;;
37237;SDS011;23129;49.662;8.448;2022-10-16T05:53:28;6.65;;;3.47;;
37237;SDS011;23129;49.662;8.448;2022-10-16T05:55:59;7.95;;;3.35;;
37237;SDS011;23129;49.662;8.448;2022-10-16T05:58:28;6.45;;;3.30;;
37237;SDS011;23129;49.662;8.448;2022-10-16T06:01:01;5.50;;;4.53;;
37237;SDS011;23129;49.662;8.448;2022-10-16T06:03:32;15.07;;;3.58;;
37237;SDS011;23129;49.662;8.448;2022-10-16T06:06:08;7.78;;;4.47;;
37237;SDS011;23129;49.662;8.448;2022-10-16T06:08:38;9.95;;;5.95;;
37237;SDS011;23129;49.662;8.448;2022-10-16T06:11:07;5.32;;;4.47;;
37237;SDS011;23129;49.662;8.448;2022-10-16T06:13:38;15.00;;;4.50;;
37237;SDS011;23129;49.662;8.448;2022-10-16T06:16:08;4.25;;;3.15;;
37237;SDS011;23129;49.662;8.448;2022-10-16T06:18:37;7.00;;;4.07;;
37237;SDS011;23129;49.662;8.448;2022-10-16T06:21:08;4.85;;;4.15;;
37237;SDS011;23129;49.662;8.448;2022-10-16T06:23:38;7.18;;;3.83;;
37237;SDS011;23129;49.662;8.448;2022-10-16T06:26:07;13.38;;;3.20;;
37237;SDS011;23129;49.662;8.448;2022-10-16T06:28:36;5.00;;;3.65;;
37237;SDS011;23129;49.662;8.448;2022-10-16T06:31:06;9.00;;;3.63;;
37237;SDS011;23129;49.662;8.448;2022-10-16T06:33:37;12.50;;;3.78;;
37237;SDS011;23129;49.662;8.448;2022-10-16T06:36:08;9.55;;;3.40;;
37237;SDS011;23129;49.662;8.448;2022-10-16T06:38:38;6.07;;;3.15;;
37237;SDS011;23129;49.662;8.448;2022-10-16T06:41:07;3.60;;;3.00;;
37237;SDS011;23129;49.662;8.448;2022-10-16T06:43:39;8.50;;;3.40;;
37237;SDS011;23129;49.662;8.448;2022-10-16T06:46:09;9.32;;;3.90;;
37237;SDS011;23129;49.662;8.448;2022-10-16T06:48:39;6.55;;;4.00;;
37237;SDS011;23129;49.662;8.448;2022-10-16T06:51:10;13.15;;;4.72;;
37237;SDS011;23129;49.662;8.448;2022-10-16T06:53:40;5.55;;;4.68;;
37237;SDS011;23129;49.662;8.448;2022-10-16T06:56:29;5.72;;;3.95;;
37237;SDS011;23129;49.662;8.448;2022-10-16T06:58:59;9.38;;;4.18;;
37237;SDS011;23129;49.662;8.448;2022-10-16T07:01:28;5.80;;;4.00;;
37237;SDS011;23129;49.662;8.448;2022-10-16T07:03:57;11.80;;;4.28;;
37237;SDS011;23129;49.662;8.448;2022-10-16T07:06:27;7.68;;;4.38;;
37237;SDS011;23129;49.662;8.448;2022-10-16T07:09:01;9.13;;;4.88;;
37237;SDS011;23129;49.662;8.448;2022-10-16T07:11:31;8.57;;;5.18;;
37237;SDS011;23129;49.662;8.448;2022-10-16T07:14:00;5.80;;;4.22;;
37237;SDS011;23129;49.662;8.448;2022-10-16T07:16:29;6.35;;;4.75;;
37237;SDS011;23129;49.662;8.448;2022-10-16T07:19:01;8.48;;;4.85;;
37237;SDS011;23129;49.662;8.448;2022-10-16T07:21:32;8.57;;;4.07;;
37237;SDS011;23129;49.662;8.448;2022-10-16T07:24:03;12.07;;;4.85;;
37237;SDS011;23129;49.662;8.448;2022-10-16T07:26:34;13.15;;;5.20;;
37237;SDS011;23129;49.662;8.448;2022-10-16T07:29:06;7.75;;;5.05;;
37237;SDS011;23129;49.662;8.448;2022-10-16T07:31:39;8.15;;;5.13;;
37237;SDS011;23129;49.662;8.448;2022-10-16T07:34:07;11.48;;;6.22;;
37237;SDS011;23129;49.662;8.448;2022-10-16T07:36:38;8.10;;;4.63;;
37237;SDS011;23129;49.662;8.448;2022-10-16T07:39:11;16.02;;;4.22;;
37237;SDS011;23129;49.662;8.448;2022-10-16T07:41:39;8.32;;;4.20;;
37237;SDS011;23129;49.662;8.448;2022-10-16T07:44:08;8.13;;;3.47;;
37237;SDS011;23129;49.662;8.448;2022-10-16T07:46:36;16.92;;;4.40;;
37237;SDS011;23129;49.662;8.448;2022-10-16T07:49:05;5.03;;;3.70;;
37237;SDS011;23129;49.662;8.448;2022-10-16T07:51:33;6.80;;;4.10;;
37237;SDS011;23129;49.662;8.448;2022-10-16T07:54:03;10.57;;;4.82;;
37237;SDS011;23129;49.662;8.448;2022-10-16T07:56:31;8.07;;;4.65;;
37237;SDS011;23129;49.662;8.448;2022-10-16T07:59:01;8.02;;;3.97;;
37237;SDS011;23129;49.662;8.448;2022-10-16T08:01:30;6.55;;;4.00;;
37237;SDS011;23129;49.662;8.448;2022-10-16T08:03:58;16.42;;;4.78;;
37237;SDS011;23129;49.662;8.448;2022-10-16T08:06:27;8.38;;;4.45;;
37237;SDS011;23129;49.662;8.448;2022-10-16T08:08:55;14.30;;;4.82;;
37237;SDS011;23129;49.662;8.448;2022-10-16T08:11:27;9.38;;;4.40;;
37237;SDS011;23129;49.662;8.448;2022-10-16T08:13:55;7.95;;;4.47;;
37237;SDS011;23129;49.662;8.448;2022-10-16T08:16:24;9.60;;;4.85;;
37237;SDS011;23129;49.662;8.448;2022-10-16T08:18:52;4.85;;;3.63;;
37237;SDS011;23129;49.662;8.448;2022-10-16T08:21:21;11.10;;;4.00;;
37237;SDS011;23129;49.662;8.448;2022-10-16T08:23:50;5.72;;;4.50;;
37237;SDS011;23129;49.662;8.448;2022-10-16T08:26:24;8.07;;;4.43;;
37237;SDS011;23129;49.662;8.448;2022-10-16T08:28:55;8.32;;;4.28;;
37237;SDS011;23129;49.662;8.448;2022-10-16T08:31:23;15.10;;;4.30;;
37237;SDS011;23129;49.662;8.448;2022-10-16T08:33:53;13.68;;;4.70;;
37237;SDS011;23129;49.662;8.448;2022-10-16T08:36:21;24.35;;;5.18;;
37237;SDS011;23129;49.662;8.448;2022-10-16T08:38:50;11.60;;;4.57;;
37237;SDS011;23129;49.662;8.448;2022-10-16T08:48:00;8.88;;;5.13;;
37237;SDS011;23129;49.662;8.448;2022-10-16T08:50:43;17.45;;;5.63;;
37237;SDS011;23129;49.662;8.448;2022-10-16T08:53:15;12.95;;;5.95;;
37237;SDS011;23129;49.662;8.448;2022-10-16T08:55:49;19.50;;;6.30;;
37237;SDS011;23129;49.662;8.448;2022-10-16T08:58:20;17.20;;;6.03;;
37237;SDS011;23129;49.662;8.448;2022-10-16T09:00:53;13.88;;;5.45;;
37237;SDS011;23129;49.662;8.448;2022-10-16T09:03:31;21.42;;;5.82;;
37237;SDS011;23129;49.662;8.448;2022-10-16T09:06:25;20.33;;;6.85;;
37237;SDS011;23129;49.662;8.448;2022-10-16T09:09:17;9.52;;;5.28;;
37237;SDS011;23129;49.662;8.448;2022-10-16T09:12:03;11.30;;;5.90;;
37237;SDS011;23129;49.662;8.448;2022-10-16T09:14:42;14.02;;;6.57;;
37237;SDS011;23129;49.662;8.448;2022-10-16T09:20:19;12.75;;;6.28;;
37237;SDS011;23129;49.662;8.448;2022-10-16T09:22:57;9.38;;;5.72;;
37237;SDS011;23129;49.662;8.448;2022-10-16T09:25:44;19.42;;;6.65;;
37237;SDS011;23129;49.662;8.448;2022-10-16T09:28:17;21.38;;;6.75;;
37237;SDS011;23129;49.662;8.448;2022-10-16T09:30:46;16.83;;;6.68;;
37237;SDS011;23129;49.662;8.448;2022-10-16T09:33:18;9.10;;;6.05;;
37237;SDS011;23129;49.662;8.448;2022-10-16T09:38:21;11.57;;;4.30;;
37237;SDS011;23129;49.662;8.448;2022-10-16T09:40:54;8.25;;;4.13;;
37237;SDS011;23129;49.662;8.448;2022-10-16T09:43:31;12.32;;;3.83;;
37237;SDS011;23129;49.662;8.448;2022-10-16T09:46:06;13.48;;;4.28;;
37237;SDS011;23129;49.662;8.448;2022-10-16T09:48:39;9.27;;;5.22;;
37237;SDS011;23129;49.662;8.448;2022-10-16T09:51:16;15.32;;;5.10;;
37237;SDS011;23129;49.662;8.448;2022-10-16T09:53:53;4.65;;;2.65;;
37237;SDS011;23129;49.662;8.448;2022-10-16T09:56:25;9.80;;;2.55;;
37237;SDS011;23129;49.662;8.448;2022-10-16T09:58:56;2.45;;;2.20;;
37237;SDS011;23129;49.662;8.448;2022-10-16T10:01:28;9.13;;;1.80;;
37237;SDS011;23129;49.662;8.448;2022-10-16T10:04:05;3.08;;;2.03;;
37237;SDS011;23129;49.662;8.448;2022-10-16T10:06:36;1.90;;;1.73;;
37237;SDS011;23129;49.662;8.448;2022-10-16T10:09:15;2.15;;;1.77;;
37237;SDS011;23129;49.662;8.448;2022-10-16T10:11:51;6.03;;;2.05;;
37237;SDS011;23129;49.662;8.448;2022-10-16T10:14:23;2.72;;;1.98;;
37237;SDS011;23129;49.662;8.448;2022-10-16T10:17:09;5.35;;;1.80;;
37237;SDS011;23129;49.662;8.448;2022-10-16T10:19:44;3.13;;;1.83;;
37237;SDS011;23129;49.662;8.448;2022-10-16T10:22:17;7.82;;;2.22;;
37237;SDS011;23129;49.662;8.448;2022-10-16T10:24:57;4.93;;;2.45;;
37237;SDS011;23129;49.662;8.448;2022-10-16T10:28:07;2.30;;;1.58;;
37237;SDS011;23129;49.662;8.448;2022-10-16T10:30:52;5.78;;;1.88;;
37237;SDS011;23129;49.662;8.448;2022-10-16T10:33:30;6.28;;;1.60;;
37237;SDS011;23129;49.662;8.448;2022-10-16T10:36:11;2.97;;;2.10;;
37237;SDS011;23129;49.662;8.448;2022-10-16T10:38:50;3.35;;;1.65;;
37237;SDS011;23129;49.662;8.448;2022-10-16T10:47:53;2.92;;;1.85;;
37237;SDS011;23129;49.662;8.448;2022-10-16T10:50:43;3.70;;;2.08;;
37237;SDS011;23129;49.662;8.448;2022-10-16T10:53:21;8.07;;;1.92;;
37237;SDS011;23129;49.662;8.448;2022-10-16T10:56:07;5.25;;;1.73;;
37237;SDS011;23129;49.662;8.448;2022-10-16T10:58:53;5.20;;;2.40;;
37237;SDS011;23129;49.662;8.448;2022-10-16T11:01:46;1.70;;;1.60;;
37237;SDS011;23129;49.662;8.448;2022-10-16T11:07:36;5.18;;;2.40;;
37237;SDS011;23129;49.662;8.448;2022-10-16T11:12:46;3.78;;;1.63;;
37237;SDS011;23129;49.662;8.448;2022-10-16T11:15:21;3.73;;;1.60;;
37237;SDS011;23129;49.662;8.448;2022-10-16T11:17:56;9.45;;;1.85;;
37237;SDS011;23129;49.662;8.448;2022-10-16T11:20:32;8.30;;;1.63;;
37237;SDS011;23129;49.662;8.448;2022-10-16T11:23:05;3.22;;;1.77;;
37237;SDS011;23129;49.662;8.448;2022-10-16T11:25:43;2.65;;;1.40;;
37237;SDS011;23129;49.662;8.448;2022-10-16T11:28:15;3.60;;;1.77;;
37237;SDS011;23129;49.662;8.448;2022-10-16T11:30:55;2.45;;;1.58;;
37237;SDS011;23129;49.662;8.448;2022-10-16T11:33:30;3.53;;;1.40;;
37237;SDS011;23129;49.662;8.448;2022-10-16T11:36:07;10.70;;;1.60;;
37237;SDS011;23129;49.662;8.448;2022-10-16T11:38:43;4.00;;;1.77;;
37237;SDS011;23129;49.662;8.448;2022-10-16T11:41:24;4.15;;;1.85;;
37237;SDS011;23129;49.662;8.448;2022-10-16T11:44:01;4.50;;;1.33;;
37237;SDS011;23129;49.662;8.448;2022-10-16T11:46:46;3.28;;;1.80;;
37237;SDS011;23129;49.662;8.448;2022-10-16T11:49:40;5.30;;;1.30;;
37237;SDS011;23129;49.662;8.448;2022-10-16T11:52:12;4.80;;;2.03;;
37237;SDS011;23129;49.662;8.448;2022-10-16T11:54:50;5.70;;;1.52;;
37237;SDS011;23129;49.662;8.448;2022-10-16T11:57:26;3.83;;;1.90;;
37237;SDS011;23129;49.662;8.448;2022-10-16T12:00:00;2.97;;;1.65;;
37237;SDS011;23129;49.662;8.448;2022-10-16T12:02:42;3.45;;;1.70;;
37237;SDS011;23129;49.662;8.448;2022-10-16T12:05:23;3.67;;;1.98;;
37237;SDS011;23129;49.662;8.448;2022-10-16T12:08:06;1.75;;;1.58;;
37237;SDS011;23129;49.662;8.448;2022-10-16T12:10:38;2.83;;;1.67;;
37237;SDS011;23129;49.662;8.448;2022-10-16T12:13:29;6.25;;;1.83;;
37237;SDS011;23129;49.662;8.448;2022-10-16T12:16:06;2.00;;;1.33;;
37237;SDS011;23129;49.662;8.448;2022-10-16T12:19:03;4.55;;;2.33;;
37237;SDS011;23129;49.662;8.448;2022-10-16T12:21:41;6.72;;;1.30;;
37237;SDS011;23129;49.662;8.448;2022-10-16T12:24:19;2.92;;;1.42;;
37237;SDS011;23129;49.662;8.448;2022-10-16T12:26:57;3.03;;;1.90;;
37237;SDS011;23129;49.662;8.448;2022-10-16T12:29:30;4.90;;;1.92;;
37237;SDS011;23129;49.662;8.448;2022-10-16T12:32:04;2.00;;;1.30;;
37237;SDS011;23129;49.662;8.448;2022-10-16T12:35:05;6.15;;;1.70;;
37237;SDS011;23129;49.662;8.448;2022-10-16T12:37:46;2.35;;;1.15;;
37237;SDS011;23129;49.662;8.448;2022-10-16T12:40:22;2.28;;;1.58;;
37237;SDS011;23129;49.662;8.448;2022-10-16T12:42:55;2.20;;;1.55;;
37237;SDS011;23129;49.662;8.448;2022-10-16T12:45:26;2.03;;;1.60;;
37237;SDS011;23129;49.662;8.448;2022-10-16T12:47:58;4.80;;;1.70;;
37237;SDS011;23129;49.662;8.448;2022-10-16T12:50:32;3.10;;;1.63;;
37237;SDS011;23129;49.662;8.448;2022-10-16T12:53:03;5.72;;;2.25;;
37237;SDS011;23129;49.662;8.448;2022-10-16T12:55:47;2.33;;;1.85;;
37237;SDS011;23129;49.662;8.448;2022-10-16T12:58:32;3.72;;;1.55;;
37237;SDS011;23129;49.662;8.448;2022-10-16T13:01:36;5.32;;;1.30;;
37237;SDS011;23129;49.662;8.448;2022-10-16T13:07:32;2.13;;;1.50;;
37237;SDS011;23129;49.662;8.448;2022-10-16T13:10:17;5.95;;;1.80;;
37237;SDS011;23129;49.662;8.448;2022-10-16T13:13:06;3.90;;;1.27;;
37237;SDS011;23129;49.662;8.448;2022-10-16T13:15:59;3.67;;;1.33;;
37237;SDS011;23129;49.662;8.448;2022-10-16T13:18:44;4.30;;;1.20;;
37237;SDS011;23129;49.662;8.448;2022-10-16T13:21:29;2.00;;;1.27;;
37237;SDS011;23129;49.662;8.448;2022-10-16T13:24:10;4.55;;;1.42;;
37237;SDS011;23129;49.662;8.448;2022-10-16T13:26:53;5.38;;;1.45;;
37237;SDS011;23129;49.662;8.448;2022-10-16T13:29:29;4.93;;;2.00;;
37237;SDS011;23129;49.662;8.448;2022-10-16T13:31:59;1.73;;;1.40;;
37237;SDS011;23129;49.662;8.448;2022-10-16T13:34:41;2.97;;;1.48;;
37237;SDS011;23129;49.662;8.448;2022-10-16T13:37:16;2.92;;;1.25;;
37237;SDS011;23129;49.662;8.448;2022-10-16T13:39:46;1.08;;;1.02;;
37237;SDS011;23129;49.662;8.448;2022-10-16T13:42:18;9.48;;;1.40;;
37237;SDS011;23129;49.662;8.448;2022-10-16T13:44:54;4.47;;;1.85;;
37237;SDS011;23129;49.662;8.448;2022-10-16T13:47:24;4.38;;;1.60;;
37237;SDS011;23129;49.662;8.448;2022-10-16T13:50:00;1.85;;;1.38;;
37237;SDS011;23129;49.662;8.448;2022-10-16T13:52:29;9.55;;;1.55;;
37237;SDS011;23129;49.662;8.448;2022-10-16T13:54:58;2.58;;;1.23;;
37237;SDS011;23129;49.662;8.448;2022-10-16T13:57:28;5.30;;;1.80;;
37237;SDS011;23129;49.662;8.448;2022-10-16T13:59:57;8.65;;;1.40;;
37237;SDS011;23129;49.662;8.448;2022-10-16T14:02:26;1.35;;;1.25;;
37237;SDS011;23129;49.662;8.448;2022-10-16T14:05:00;3.75;;;1.48;;
37237;SDS011;23129;49.662;8.448;2022-10-16T14:07:31;2.15;;;1.48;;
37237;SDS011;23129;49.662;8.448;2022-10-16T14:10:04;2.65;;;1.30;;
37237;SDS011;23129;49.662;8.448;2022-10-16T14:12:34;2.15;;;1.50;;
37237;SDS011;23129;49.662;8.448;2022-10-16T14:15:04;5.13;;;1.63;;
37237;SDS011;23129;49.662;8.448;2022-10-16T14:17:44;1.73;;;1.20;;
37237;SDS011;23129;49.662;8.448;2022-10-16T14:20:18;4.97;;;1.40;;
37237;SDS011;23129;49.662;8.448;2022-10-16T14:22:57;2.40;;;1.60;;
37237;SDS011;23129;49.662;8.448;2022-10-16T14:25:29;3.10;;;1.40;;
37237;SDS011;23129;49.662;8.448;2022-10-16T14:28:00;2.15;;;1.40;;
37237;SDS011;23129;49.662;8.448;2022-10-16T14:30:32;5.55;;;1.17;;
37237;SDS011;23129;49.662;8.448;2022-10-16T14:33:03;2.53;;;1.70;;
37237;SDS011;23129;49.662;8.448;2022-10-16T14:35:56;1.75;;;1.38;;
37237;SDS011;23129;49.662;8.448;2022-10-16T14:38:29;1.98;;;1.25;;
37237;SDS011;23129;49.662;8.448;2022-10-16T14:40:58;1.70;;;1.60;;
37237;SDS011;23129;49.662;8.448;2022-10-16T14:43:29;5.15;;;1.38;;
37237;SDS011;23129;49.662;8.448;2022-10-16T14:46:01;3.90;;;1.60;;
37237;SDS011;23129;49.662;8.448;2022-10-16T14:48:34;4.80;;;1.48;;
37237;SDS011;23129;49.662;8.448;2022-10-16T14:51:04;1.85;;;1.27;;
37237;SDS011;23129;49.662;8.448;2022-10-16T14:53:40;2.95;;;1.83;;
37237;SDS011;23129;49.662;8.448;2022-10-16T14:56:12;3.47;;;1.52;;
37237;SDS011;23129;49.662;8.448;2022-10-16T14:58:45;1.40;;;1.30;;
37237;SDS011;23129;49.662;8.448;2022-10-16T15:01:14;2.70;;;1.60;;
37237;SDS011;23129;49.662;8.448;2022-10-16T15:03:46;3.72;;;1.52;;
37237;SDS011;23129;49.662;8.448;2022-10-16T15:06:17;5.20;;;1.40;;
37237;SDS011;23129;49.662;8.448;2022-10-16T15:08:46;3.28;;;1.60;;
37237;SDS011;23129;49.662;8.448;2022-10-16T15:11:17;4.15;;;1.70;;
37237;SDS011;23129;49.662;8.448;2022-10-16T15:13:46;2.40;;;1.42;;
37237;SDS011;23129;49.662;8.448;2022-10-16T15:16:15;4.25;;;1.38;;
37237;SDS011;23129;49.662;8.448;2022-10-16T15:18:44;7.30;;;1.70;;
37237;SDS011;23129;49.662;8.448;2022-10-16T15:21:14;3.47;;;1.70;;
37237;SDS011;23129;49.662;8.448;2022-10-16T15:23:53;3.55;;;2.00;;
37237;SDS011;23129;49.662;8.448;2022-10-16T15:26:22;2.80;;;1.42;;
37237;SDS011;23129;49.662;8.448;2022-10-16T15:28:51;7.20;;;2.45;;
37237;SDS011;23129;49.662;8.448;2022-10-16T15:31:20;5.00;;;1.48;;
37237;SDS011;23129;49.662;8.448;2022-10-16T15:33:49;12.77;;;2.10;;
37237;SDS011;23129;49.662;8.448;2022-10-16T15:36:27;1.98;;;1.60;;
37237;SDS011;23129;49.662;8.448;2022-10-16T15:38:56;7.30;;;2.20;;
37237;SDS011;23129;49.662;8.448;2022-10-16T15:41:25;5.32;;;1.83;;
37237;SDS011;23129;49.662;8.448;2022-10-16T15:43:54;6.22;;;2.00;;
37237;SDS011;23129;49.662;8.448;2022-10-16T15:46:23;3.72;;;1.50;;
37237;SDS011;23129;49.662;8.448;2022-10-16T15:48:55;7.95;;;1.98;;
37237;SDS011;23129;49.662;8.448;2022-10-16T15:51:27;10.98;;;2.50;;